createdAt,value
2019-04-20T00:01:32.232Z,6.00
2019-04-20T00:04:03.208Z,5.43
2019-04-20T00:06:43.197Z,5.67
2019-04-20T00:09:14.010Z,5.53
2019-04-20T00:11:53.664Z,5.93
2019-04-20T00:14:19.277Z,5.70
2019-04-20T00:16:46.107Z,5.80
2019-04-20T00:19:22.439Z,5.53
2019-04-20T00:21:59.623Z,5.57
2019-04-20T00:24:33.625Z,5.77
2019-04-20T00:27:26.259Z,6.00
2019-04-20T00:30:21.079Z,5.37
2019-04-20T00:32:48.993Z,6.07
2019-04-20T00:35:06.302Z,5.70
2019-04-20T00:37:38.045Z,6.07
2019-04-20T00:40:10.171Z,5.97
2019-04-20T00:42:48.304Z,5.30
2019-04-20T00:45:21.350Z,5.93
2019-04-20T00:47:54.347Z,5.37
2019-04-20T00:50:35.824Z,6.20
2019-04-20T00:53:04.462Z,5.97
2019-04-20T00:55:27.314Z,6.50
2019-04-20T00:58:10.432Z,5.60
2019-04-20T01:00:57.030Z,5.83
2019-04-20T01:03:23.294Z,5.80
2019-04-20T01:06:15.227Z,5.50
2019-04-20T01:08:29.629Z,5.70
2019-04-20T01:11:01.511Z,6.30
2019-04-20T01:13:43.504Z,5.80
2019-04-20T01:16:18.511Z,6.20
2019-04-20T01:18:39.795Z,6.73
2019-04-20T01:21:16.494Z,7.03
2019-04-20T01:23:52.564Z,6.93
2019-04-20T01:26:20.579Z,6.83
2019-04-20T01:29:04.195Z,6.23
2019-04-20T01:31:33.994Z,7.50
2019-04-20T01:34:05.642Z,6.90
2019-04-20T01:36:49.088Z,7.80
2019-04-20T01:39:15.991Z,7.33
2019-04-20T01:41:35.131Z,6.83
2019-04-20T01:44:07.122Z,7.70
2019-04-20T01:46:39.130Z,7.67
2019-04-20T01:49:17.348Z,7.50
2019-04-20T01:51:52.477Z,7.87
2019-04-20T01:54:31.574Z,7.60
2019-04-20T01:57:08.497Z,7.47
2019-04-20T01:59:46.015Z,8.70
2019-04-20T02:02:29.916Z,8.37
2019-04-20T02:05:13.599Z,8.00
2019-04-20T02:07:43.879Z,8.70
2019-04-20T02:10:14.821Z,8.37
2019-04-20T02:12:51.355Z,8.43
2019-04-20T02:15:24.179Z,8.47
2019-04-20T02:18:03.690Z,8.63
2019-04-20T02:20:37.930Z,7.83
2019-04-20T02:23:09.395Z,8.43
2019-04-20T02:25:27.010Z,8.00
2019-04-20T02:28:18.092Z,8.77
2019-04-20T02:31:06.647Z,8.77
2019-04-20T02:33:41.934Z,8.87
2019-04-20T02:36:27.851Z,7.70
2019-04-20T02:39:21.148Z,9.13
2019-04-20T02:41:44.677Z,8.63
2019-04-20T02:44:28.007Z,8.67
2019-04-20T02:46:48.854Z,8.33
2019-04-20T02:54:19.084Z,8.57
2019-04-20T02:57:10.777Z,8.00
2019-04-20T03:01:50.165Z,7.80
2019-04-20T03:04:06.989Z,8.40
2019-04-20T03:06:53.523Z,8.03
2019-04-20T03:09:32.822Z,7.73
2019-04-20T03:12:04.550Z,8.17
2019-04-20T03:14:31.966Z,7.80
2019-04-20T03:17:12.742Z,7.83
2019-04-20T03:19:33.976Z,7.60
2019-04-20T03:22:18.876Z,8.20
2019-04-20T03:24:51.552Z,8.43
2019-04-20T03:27:25.379Z,7.90
2019-04-20T03:30:58.439Z,7.77
2019-04-20T03:35:27.735Z,8.13
2019-04-20T03:37:59.851Z,7.20
2019-04-20T03:40:25.064Z,8.43
2019-04-20T03:42:42.896Z,7.80
2019-04-20T03:45:19.288Z,7.77
2019-04-20T03:48:00.703Z,8.17
2019-04-20T03:50:42.453Z,9.47
2019-04-20T03:53:23.689Z,9.03
2019-04-20T03:56:02.195Z,9.17
2019-04-20T03:58:55.510Z,8.00
2019-04-20T04:02:04.553Z,8.37
2019-04-20T04:04:32.323Z,8.67
2019-04-20T04:06:45.930Z,8.70
2019-04-20T04:09:23.718Z,7.97
2019-04-20T04:11:54.844Z,8.07
2019-04-20T04:14:15.785Z,8.83
2019-04-20T04:16:51.522Z,8.47
2019-04-20T04:19:25.196Z,8.73
2019-04-20T04:22:07.821Z,9.00
2019-04-20T04:24:34.478Z,7.83
2019-04-20T04:27:09.419Z,8.30
2019-04-20T04:29:47.088Z,8.30
2019-04-20T04:32:33.171Z,7.77
2019-04-20T04:34:54.226Z,8.07
2019-04-20T04:37:26.638Z,8.20
2019-04-20T04:40:11.182Z,7.63
2019-04-20T04:42:34.284Z,7.70
2019-04-20T04:44:53.859Z,8.17
2019-04-20T04:47:18.069Z,7.63
2019-04-20T04:49:57.865Z,8.00
2019-04-20T04:52:29.440Z,7.60
2019-04-20T04:55:09.547Z,8.23
2019-04-20T04:57:28.432Z,7.83
2019-04-20T04:59:59.574Z,8.33
2019-04-20T05:02:39.308Z,8.40
2019-04-20T05:05:42.532Z,8.93
2019-04-20T05:08:15.464Z,8.40
2019-04-20T05:10:41.544Z,8.77
2019-04-20T05:13:13.559Z,9.33
2019-04-20T05:15:58.255Z,8.60
2019-04-20T05:18:41.984Z,8.10
2019-04-20T05:21:15.701Z,7.73
2019-04-20T05:23:45.777Z,8.07
2019-04-20T05:26:55.663Z,8.37
2019-04-20T05:29:12.530Z,7.97
2019-04-20T05:31:46.211Z,7.57
2019-04-20T05:34:30.953Z,7.70
2019-04-20T05:37:11.042Z,7.07
2019-04-20T05:39:37.994Z,7.00
2019-04-20T05:42:16.438Z,7.57
2019-04-20T05:44:45.800Z,7.10
2019-04-20T05:47:19.941Z,7.03
2019-04-20T05:49:45.065Z,6.80
2019-04-20T05:52:35.192Z,6.57
2019-04-20T05:54:57.643Z,6.30
2019-04-20T05:57:32.915Z,6.10
2019-04-20T06:00:07.133Z,6.23
2019-04-20T06:02:32.254Z,6.40
2019-04-20T06:05:10.089Z,6.10
2019-04-20T06:07:38.432Z,6.07
2019-04-20T06:10:18.887Z,6.47
2019-04-20T06:12:46.052Z,5.97
2019-04-20T06:15:36.976Z,5.77
2019-04-20T06:18:06.615Z,5.40
2019-04-20T06:21:09.026Z,5.40
2019-04-20T06:26:43.449Z,4.90
2019-04-20T06:28:55.195Z,4.97
2019-04-20T06:31:39.814Z,4.60
2019-04-20T06:42:10.786Z,4.30
2019-04-20T06:44:50.843Z,4.13
2019-04-20T06:47:16.197Z,4.00
2019-04-20T06:50:03.428Z,4.33
2019-04-20T06:52:45.299Z,4.27
2019-04-20T06:55:19.814Z,4.13
2019-04-20T06:57:55.109Z,4.57
2019-04-20T07:00:25.747Z,4.23
2019-04-20T07:03:08.098Z,4.37
2019-04-20T07:05:39.621Z,4.70
2019-04-20T07:08:31.446Z,4.80
2019-04-20T07:11:08.897Z,5.60
2019-04-20T07:13:11.584Z,5.40
2019-04-20T07:15:57.112Z,6.25
2019-04-20T07:18:46.371Z,4.97
2019-04-20T07:21:28.744Z,4.40
2019-04-20T07:23:57.598Z,3.87
2019-04-20T07:26:29.093Z,4.78
2019-04-20T07:28:58.936Z,4.12
2019-04-20T07:31:29.568Z,3.90
2019-04-20T07:34:04.286Z,3.65
2019-04-20T07:36:40.031Z,5.00
2019-04-20T07:39:15.468Z,5.58
2019-04-20T07:41:49.180Z,5.40
2019-04-20T07:44:21.775Z,5.90
2019-04-20T07:47:02.833Z,4.95
2019-04-20T07:49:24.812Z,4.20
2019-04-20T07:51:40.026Z,3.90
2019-04-20T07:54:38.632Z,4.10
2019-04-20T07:56:58.675Z,3.80
2019-04-20T07:59:27.569Z,4.00
2019-04-20T08:02:32.031Z,4.20
2019-04-20T08:05:01.758Z,4.00
2019-04-20T08:07:24.841Z,5.20
2019-04-20T08:09:59.893Z,4.42
2019-04-20T08:12:55.578Z,5.40
2019-04-20T08:15:34.133Z,5.87
2019-04-20T08:18:06.398Z,5.85
2019-04-20T08:20:29.878Z,6.50
2019-04-20T08:23:12.980Z,6.87
2019-04-20T08:25:27.799Z,7.90
2019-04-20T08:28:06.401Z,8.13
2019-04-20T08:31:10.424Z,8.00
2019-04-20T08:34:04.415Z,6.35
2019-04-20T08:36:29.998Z,6.00
2019-04-20T08:39:24.225Z,6.00
2019-04-20T08:41:28.581Z,5.03
2019-04-20T08:44:18.772Z,4.60
2019-04-20T08:46:47.737Z,5.17
2019-04-20T08:49:11.334Z,4.60
2019-04-20T08:51:49.596Z,3.70
2019-04-20T08:54:14.055Z,2.90
2019-04-20T08:56:36.059Z,3.07
2019-04-20T08:58:59.603Z,3.37
2019-04-20T09:01:35.848Z,3.30
2019-04-20T09:04:13.248Z,3.50
2019-04-20T09:06:53.338Z,3.00
2019-04-20T09:09:42.402Z,3.33
2019-04-20T09:12:05.304Z,3.00
2019-04-20T09:14:21.759Z,9.47
2019-04-20T09:17:22.351Z,3.37
2019-04-20T09:19:51.904Z,3.37
2019-04-20T09:22:53.325Z,3.37
2019-04-20T09:28:18.765Z,3.03
2019-04-20T09:30:54.674Z,3.00
2019-04-20T09:33:51.605Z,2.67
2019-04-20T09:36:23.687Z,2.77
2019-04-20T09:39:11.452Z,2.53
2019-04-20T09:42:00.487Z,3.13
2019-04-20T09:44:31.415Z,2.73
2019-04-20T09:47:00.310Z,2.47
2019-04-20T09:49:42.542Z,2.57
2019-04-20T09:52:17.075Z,2.20
2019-04-20T09:54:55.433Z,2.53
2019-04-20T09:57:29.473Z,2.37
2019-04-20T10:00:02.941Z,2.80
2019-04-20T10:02:23.631Z,3.03
2019-04-20T10:04:49.444Z,2.93
2019-04-20T10:07:24.248Z,2.83
2019-04-20T10:09:53.946Z,3.17
2019-04-20T10:12:25.935Z,2.67
2019-04-20T10:15:02.576Z,2.77
2019-04-20T10:17:31.801Z,3.20
2019-04-20T10:20:10.866Z,3.53
2019-04-20T10:22:36.446Z,3.33
2019-04-20T10:25:08.668Z,3.43
2019-04-20T10:27:42.063Z,3.50
2019-04-20T10:30:13.005Z,3.90
2019-04-20T10:32:47.188Z,4.70
2019-04-20T10:35:18.768Z,5.03
2019-04-20T10:37:59.696Z,4.40
2019-04-20T10:40:44.984Z,4.80
2019-04-20T10:43:04.627Z,4.33
2019-04-20T10:45:38.880Z,4.03
2019-04-20T10:48:10.924Z,4.00
2019-04-20T10:50:43.131Z,3.67
2019-04-20T10:53:14.495Z,3.70
2019-04-20T10:55:47.320Z,4.00
2019-04-20T10:58:19.659Z,4.17
2019-04-20T11:00:55.856Z,4.00
2019-04-20T11:03:27.271Z,3.70
2019-04-20T11:05:58.533Z,3.97
2019-04-20T11:08:30.682Z,4.10
2019-04-20T11:11:11.928Z,4.80
2019-04-20T11:13:47.640Z,4.40
2019-04-20T11:16:22.309Z,4.53
2019-04-20T11:18:55.582Z,4.50
2019-04-20T11:21:28.151Z,4.73
2019-04-20T11:24:00.627Z,4.03
2019-04-20T11:26:36.503Z,3.90
2019-04-20T11:29:06.476Z,4.20
2019-04-20T11:31:43.115Z,4.67
2019-04-20T11:34:10.284Z,3.73
2019-04-20T11:36:41.667Z,3.77
2019-04-20T11:39:14.683Z,4.33
2019-04-20T11:41:47.401Z,5.50
2019-04-20T11:44:20.407Z,5.03
2019-04-20T11:46:52.735Z,4.03
2019-04-20T11:49:25.490Z,3.57
2019-04-20T11:51:57.352Z,4.23
2019-04-20T11:54:28.649Z,4.30
2019-04-20T11:56:59.900Z,3.33
2019-04-20T11:59:31.176Z,3.30
2019-04-20T12:02:30.426Z,2.80
2019-04-20T12:05:13.097Z,2.10
2019-04-20T12:07:49.100Z,2.90
2019-04-20T12:10:23.962Z,3.20
2019-04-20T12:12:55.622Z,3.20
2019-04-20T12:15:26.667Z,3.53
2019-04-20T12:17:59.848Z,4.57
2019-04-20T12:20:32.493Z,4.63
2019-04-20T12:23:04.372Z,4.47
2019-04-20T12:25:36.781Z,4.83
2019-04-20T12:28:09.552Z,6.00
2019-04-20T12:30:41.804Z,5.57
2019-04-20T12:33:13.618Z,5.77
2019-04-20T12:35:44.774Z,5.90
2019-04-20T12:38:17.135Z,5.70
2019-04-20T12:40:50.687Z,5.97
2019-04-20T12:43:21.272Z,5.97
2019-04-20T12:45:54.040Z,6.60
2019-04-20T12:48:26.675Z,6.83
2019-04-20T12:50:57.999Z,6.43
2019-04-20T12:53:30.499Z,6.43
2019-04-20T12:56:02.298Z,5.33
2019-04-20T12:58:34.636Z,5.47
2019-04-20T13:01:06.633Z,4.97
2019-04-20T13:03:37.655Z,3.97
2019-04-20T13:06:08.059Z,4.47
2019-04-20T13:08:45.154Z,4.90
2019-04-20T13:11:47.227Z,5.90
2019-04-20T13:14:58.626Z,5.73
2019-04-20T13:17:30.366Z,5.00
2019-04-20T13:20:01.595Z,4.80
2019-04-20T13:22:32.963Z,4.33
2019-04-20T13:25:05.526Z,4.40
2019-04-20T13:27:36.855Z,5.30
2019-04-20T13:30:08.859Z,3.87
2019-04-20T13:32:41.460Z,4.43
2019-04-20T13:35:14.117Z,4.33
2019-04-20T13:37:46.906Z,3.90
2019-04-20T13:40:19.433Z,3.60
2019-04-20T13:42:51.898Z,3.47
2019-04-20T13:45:24.559Z,3.50
2019-04-20T13:47:56.988Z,2.93
2019-04-20T13:50:29.455Z,2.97
2019-04-20T13:53:01.186Z,2.70
2019-04-20T13:55:33.638Z,2.87
2019-04-20T13:58:09.905Z,2.70
2019-04-20T14:01:01.040Z,3.40
2019-04-20T14:03:33.064Z,3.10
2019-04-20T14:06:04.683Z,2.63
2019-04-20T14:08:35.750Z,3.13
2019-04-20T14:11:07.280Z,3.10
2019-04-20T14:13:45.025Z,2.53
2019-04-20T14:16:11.456Z,2.77
2019-04-20T14:18:42.968Z,3.00
2019-04-20T14:21:14.691Z,2.90
2019-04-20T14:23:46.089Z,3.17
2019-04-20T14:26:18.892Z,2.70
2019-04-20T14:28:51.273Z,2.50
2019-04-20T14:31:23.840Z,2.40
2019-04-20T14:33:55.350Z,2.30
2019-04-20T14:36:26.806Z,2.65
2019-04-20T14:38:58.320Z,2.58
2019-04-20T14:41:30.618Z,2.45
2019-04-20T14:44:03.665Z,2.62
2019-04-20T14:46:35.905Z,2.62
2019-04-20T14:49:07.667Z,2.65
2019-04-20T14:51:39.617Z,2.72
2019-04-20T14:54:11.765Z,2.67
2019-04-20T14:56:43.755Z,2.60
2019-04-20T14:59:23.347Z,2.65
2019-04-20T15:01:58.441Z,2.27
2019-04-20T15:04:32.067Z,2.40
2019-04-20T15:07:04.628Z,2.55
2019-04-20T15:09:38.734Z,2.40
2019-04-20T15:12:08.892Z,2.50
2019-04-20T15:14:40.834Z,2.33
2019-04-20T15:17:17.366Z,2.60
2019-04-20T15:20:05.948Z,2.40
2019-04-20T15:22:47.596Z,2.60
2019-04-20T15:25:19.195Z,2.60
2019-04-20T15:27:52.030Z,2.60
2019-04-20T15:30:24.440Z,2.40
2019-04-20T15:32:56.777Z,2.60
2019-04-20T15:35:28.348Z,2.85
2019-04-20T15:38:00.251Z,2.50
2019-04-20T15:40:33.011Z,2.50
2019-04-20T15:43:13.340Z,1.90
2019-04-20T15:45:39.151Z,2.27
2019-04-20T15:48:12.074Z,2.20
2019-04-20T15:50:45.661Z,1.90
2019-04-20T15:53:17.631Z,1.72
2019-04-20T15:55:50.881Z,2.10
2019-04-20T15:58:23.279Z,2.10
2019-04-20T16:00:56.418Z,2.33
2019-04-20T16:03:39.524Z,2.20
2019-04-20T16:06:13.425Z,1.77
2019-04-20T16:08:48.583Z,2.20
2019-04-20T16:11:22.723Z,2.00
2019-04-20T16:13:55.413Z,2.17
2019-04-20T16:16:27.748Z,2.10
2019-04-20T16:19:03.951Z,4.10
2019-04-20T16:21:35.745Z,2.12
2019-04-20T16:24:18.990Z,2.50
2019-04-20T16:26:57.749Z,2.33
2019-04-20T16:29:29.400Z,2.02
2019-04-20T16:32:02.427Z,2.50
2019-04-20T16:34:36.673Z,2.02
2019-04-20T16:37:08.494Z,2.72
2019-04-20T16:39:40.709Z,2.20
2019-04-20T16:42:14.094Z,2.77
2019-04-20T16:44:45.599Z,2.75
2019-04-20T16:47:18.356Z,2.65
2019-04-20T16:49:50.870Z,2.62
2019-04-20T16:52:23.027Z,3.10
2019-04-20T16:54:54.163Z,3.35
2019-04-20T16:57:25.627Z,3.40
2019-04-20T16:59:59.456Z,3.35
2019-04-20T17:02:29.935Z,3.20
2019-04-20T17:05:02.965Z,5.50
2019-04-20T17:07:37.398Z,3.45
2019-04-20T17:10:09.709Z,2.77
2019-04-20T17:12:40.103Z,3.17
2019-04-20T17:15:14.009Z,4.85
2019-04-20T17:17:48.317Z,5.37
2019-04-20T17:20:19.839Z,5.33
2019-04-20T17:22:50.781Z,4.10
2019-04-20T17:25:21.900Z,3.85
2019-04-20T17:28:18.654Z,4.33
2019-04-20T17:31:07.170Z,5.42
2019-04-20T17:33:55.223Z,41.85
2019-04-20T17:36:19.743Z,5.15
2019-04-20T17:38:52.525Z,3.37
2019-04-20T17:41:40.139Z,3.30
2019-04-20T17:44:09.675Z,5.22
2019-04-20T17:46:35.782Z,4.90
2019-04-20T17:49:13.628Z,5.60
2019-04-20T17:51:55.430Z,4.20
2019-04-20T17:54:19.872Z,3.30
2019-04-20T17:56:52.136Z,3.43
2019-04-20T17:59:22.547Z,2.90
2019-04-20T18:02:45.973Z,3.03
2019-04-20T18:05:25.679Z,3.50
2019-04-20T18:08:02.677Z,3.53
2019-04-20T18:10:26.406Z,4.63
2019-04-20T18:12:46.463Z,4.70
2019-04-20T18:15:33.526Z,7.70
2019-04-20T18:18:23.585Z,7.20
2019-04-20T18:21:06.724Z,7.97
2019-04-20T18:23:41.438Z,8.30
2019-04-20T18:26:31.741Z,9.47
2019-04-20T18:29:05.177Z,8.37
2019-04-20T18:31:37.599Z,8.97
2019-04-20T18:34:17.982Z,8.77
2019-04-20T18:36:47.574Z,8.43
2019-04-20T18:39:27.041Z,8.97
2019-04-20T18:41:55.497Z,9.00
2019-04-20T18:44:30.490Z,9.60
2019-04-20T18:47:16.749Z,9.90
2019-04-20T18:49:43.129Z,10.17
2019-04-20T18:52:02.015Z,9.97
2019-04-20T18:54:40.122Z,21.90
2019-04-20T18:57:13.135Z,11.77
2019-04-20T18:59:47.854Z,13.90
2019-04-20T19:02:22.606Z,14.10
2019-04-20T19:04:48.066Z,13.87
2019-04-20T19:07:19.791Z,13.93
2019-04-20T19:09:53.301Z,12.13
2019-04-20T19:12:38.912Z,10.87
2019-04-20T19:15:30.443Z,8.90
2019-04-20T19:18:25.921Z,9.10
2019-04-20T19:20:52.927Z,7.97
2019-04-20T19:23:25.123Z,8.73
2019-04-20T19:26:03.585Z,9.43
2019-04-20T19:28:35.208Z,9.47
2019-04-20T19:31:17.111Z,9.70
2019-04-20T19:33:56.471Z,10.83
2019-04-20T19:36:20.954Z,13.57
2019-04-20T19:38:52.291Z,13.63
2019-04-20T19:41:25.025Z,14.27
2019-04-20T19:43:56.383Z,11.90
2019-04-20T19:49:01.060Z,9.77
2019-04-20T19:51:41.165Z,9.90
2019-04-20T19:54:18.935Z,9.80
2019-04-20T19:56:45.178Z,11.03
2019-04-20T19:59:11.092Z,9.13
2019-04-20T20:01:45.441Z,9.20
2019-04-20T20:04:17.568Z,8.03
2019-04-20T20:06:55.860Z,7.30
2019-04-20T20:09:21.839Z,8.40
2019-04-20T20:11:56.124Z,7.73
2019-04-20T20:14:34.310Z,8.03
2019-04-20T20:17:19.933Z,7.83
2019-04-20T20:20:03.762Z,8.37
2019-04-20T20:22:18.406Z,9.00
2019-04-20T20:24:39.139Z,8.73
2019-04-20T20:27:20.752Z,8.83
2019-04-20T20:29:57.962Z,8.50
2019-04-20T20:32:25.876Z,8.30
2019-04-20T20:34:56.112Z,8.03
2019-04-20T20:37:34.709Z,6.90
2019-04-20T20:40:07.598Z,7.53
2019-04-20T20:42:39.892Z,7.90
2019-04-20T20:45:11.985Z,7.93
2019-04-20T20:47:53.717Z,7.73
2019-04-20T20:50:33.814Z,7.70
2019-04-20T20:52:58.651Z,8.17
2019-04-20T20:55:28.814Z,8.90
2019-04-20T20:58:00.883Z,7.30
2019-04-20T21:00:35.948Z,8.37
2019-04-20T21:03:05.479Z,8.53
2019-04-20T21:05:37.706Z,8.10
2019-04-20T21:08:11.381Z,7.80
2019-04-20T21:10:44.714Z,8.90
2019-04-20T21:13:15.603Z,8.03
2019-04-20T21:15:57.638Z,7.63
2019-04-20T21:18:41.051Z,8.50
2019-04-20T21:21:13.306Z,8.20
2019-04-20T21:23:42.835Z,8.57
2019-04-20T21:26:12.195Z,8.50
2019-04-20T21:28:42.139Z,8.50
2019-04-20T21:31:21.705Z,8.53
2019-04-20T21:33:47.105Z,7.90
2019-04-20T21:36:19.237Z,7.63
2019-04-20T21:38:50.145Z,8.00
2019-04-20T21:41:23.896Z,7.33
2019-04-20T21:43:54.060Z,7.10
2019-04-20T21:46:24.881Z,8.40
2019-04-20T21:49:08.194Z,8.23
2019-04-20T21:51:38.339Z,8.57
2019-04-20T21:54:02.044Z,7.40
2019-04-20T21:56:37.280Z,7.83
2019-04-20T21:59:14.338Z,7.70
2019-04-20T22:01:41.116Z,7.17
2019-04-20T22:04:12.198Z,7.70
2019-04-20T22:06:44.503Z,7.90
2019-04-20T22:09:15.707Z,7.40
2019-04-20T22:11:49.502Z,7.13
2019-04-20T22:14:24.317Z,6.70
2019-04-20T22:16:54.850Z,6.60
2019-04-20T22:19:36.816Z,6.63
2019-04-20T22:22:09.618Z,6.70
2019-04-20T22:24:44.979Z,7.00
2019-04-20T22:27:12.871Z,7.53
2019-04-20T22:29:38.503Z,7.27
2019-04-20T22:32:13.786Z,6.70
2019-04-20T22:34:47.629Z,6.83
2019-04-20T22:37:21.981Z,7.47
2019-04-20T22:39:53.946Z,6.43
2019-04-20T22:42:23.339Z,6.77
2019-04-20T22:45:01.246Z,7.00
2019-04-20T22:47:31.864Z,7.40
2019-04-20T22:50:30.004Z,6.53
2019-04-20T22:52:46.011Z,6.90
2019-04-20T22:55:28.272Z,7.53
2019-04-20T22:57:48.395Z,7.60
2019-04-20T23:00:16.759Z,6.13
2019-04-20T23:02:47.439Z,7.23
2019-04-20T23:05:18.600Z,7.00
2019-04-20T23:07:50.556Z,6.67
2019-04-20T23:10:29.089Z,7.03
2019-04-20T23:12:57.526Z,6.77
2019-04-20T23:15:26.049Z,6.70
2019-04-20T23:17:57.982Z,7.37
2019-04-20T23:20:32.585Z,6.87
2019-04-20T23:23:02.983Z,6.93
2019-04-20T23:25:35.202Z,7.10
2019-04-20T23:28:12.310Z,7.30
2019-04-20T23:30:41.983Z,7.03
2019-04-20T23:33:11.768Z,6.57
2019-04-20T23:35:48.952Z,7.43
2019-04-20T23:38:19.346Z,6.87
2019-04-20T23:40:49.941Z,8.10
2019-04-20T23:43:28.997Z,9.27
2019-04-20T23:46:22.897Z,10.27
2019-04-20T23:49:18.722Z,10.33
2019-04-20T23:51:59.244Z,12.80
2019-04-20T23:54:19.951Z,12.17
2019-04-20T23:56:46.314Z,10.67
2019-04-20T23:59:19.196Z,11.23
